createdAt,value
2022-12-23T00:01:22.681Z,41.08
2022-12-23T00:03:49.270Z,37.58
2022-12-23T00:06:17.536Z,40.75
2022-12-23T00:08:44.616Z,36.72
2022-12-23T00:11:15.501Z,34.63
2022-12-23T00:14:00.821Z,36.03
2022-12-23T00:16:27.518Z,36.15
2022-12-23T00:18:55.154Z,35.50
2022-12-23T00:21:22.638Z,33.63
2022-12-23T00:23:51.090Z,36.33
2022-12-23T00:26:23.751Z,39.17
2022-12-23T00:28:51.053Z,40.85
2022-12-23T00:31:19.080Z,29.77
2022-12-23T00:33:48.340Z,32.47
2022-12-23T00:36:22.600Z,31.50
2022-12-23T00:39:08.368Z,31.52
2022-12-23T00:41:54.243Z,30.23
2022-12-23T00:44:21.128Z,31.73
2022-12-23T00:46:47.880Z,31.75
2022-12-23T00:49:34.989Z,28.88
2022-12-23T00:52:02.188Z,28.17
2022-12-23T00:56:55.334Z,30.10
2022-12-23T00:59:21.853Z,34.60
2022-12-23T01:02:07.119Z,33.40
2022-12-23T01:04:52.774Z,38.28
2022-12-23T01:07:19.370Z,37.80
2022-12-23T01:09:46.115Z,37.00
2022-12-23T01:12:14.008Z,31.23
2022-12-23T01:14:40.705Z,30.25
2022-12-23T01:17:08.017Z,31.55
2022-12-23T01:19:34.677Z,31.73
2022-12-23T01:22:01.188Z,24.02
2022-12-23T01:24:32.595Z,31.45
2022-12-23T01:26:59.636Z,33.60
2022-12-23T01:29:26.510Z,36.00
2022-12-23T01:31:53.195Z,36.10
2022-12-23T01:34:19.856Z,46.38
2022-12-23T01:36:46.361Z,35.03
2022-12-23T01:39:13.018Z,28.95
2022-12-23T01:41:58.045Z,20.05
2022-12-23T01:44:55.568Z,27.38
2022-12-23T01:47:30.874Z,26.02
2022-12-23T01:50:10.122Z,27.20
2022-12-23T01:52:44.857Z,25.85
2022-12-23T01:55:12.944Z,25.35
2022-12-23T01:57:43.055Z,24.65
2022-12-23T02:00:28.989Z,30.65
2022-12-23T02:03:14.209Z,28.33
2022-12-23T02:05:44.757Z,28.33
2022-12-23T02:08:31.307Z,38.17
2022-12-23T02:11:15.864Z,51.95
2022-12-23T02:14:18.520Z,48.58
2022-12-23T02:16:54.543Z,49.15
2022-12-23T02:19:57.020Z,52.00
2022-12-23T02:22:53.438Z,55.28
2022-12-23T02:25:47.608Z,49.40
2022-12-23T02:28:47.020Z,51.17
2022-12-23T02:31:13.538Z,48.17
2022-12-23T02:34:00.303Z,46.20
2022-12-23T02:39:19.072Z,40.58
2022-12-23T02:42:02.372Z,33.42
2022-12-23T02:44:51.888Z,33.80
2022-12-23T02:47:36.404Z,33.60
2022-12-23T02:50:11.082Z,34.10
2022-12-23T02:52:41.334Z,33.63
2022-12-23T02:55:17.621Z,36.20
2022-12-23T02:57:48.376Z,39.05
2022-12-23T03:00:15.483Z,38.78
2022-12-23T03:05:39.201Z,39.83
2022-12-23T03:10:43.466Z,32.83
2022-12-23T03:13:22.465Z,31.52
2022-12-23T03:16:03.884Z,30.58
2022-12-23T03:18:59.531Z,33.95
2022-12-23T03:21:41.876Z,27.93
2022-12-23T03:24:30.275Z,33.05
2022-12-23T03:27:17.344Z,34.25
2022-12-23T03:30:14.676Z,30.58
2022-12-23T03:32:49.420Z,33.08
2022-12-23T03:35:20.045Z,31.05
2022-12-23T03:37:50.623Z,31.60
2022-12-23T03:40:22.671Z,29.25
2022-12-23T03:42:56.061Z,34.08
2022-12-23T03:45:39.701Z,31.70
2022-12-23T03:48:15.544Z,34.30
2022-12-23T03:50:43.215Z,60.17
2022-12-23T03:53:16.630Z,48.30
2022-12-23T03:55:48.520Z,60.70
2022-12-23T03:58:24.573Z,65.00
2022-12-23T04:01:00.623Z,64.70
2022-12-23T04:04:02.432Z,68.30
2022-12-23T04:06:36.065Z,60.28
2022-12-23T04:09:04.781Z,62.72
2022-12-23T04:11:33.402Z,46.80
2022-12-23T04:13:59.942Z,46.83
2022-12-23T04:16:27.335Z,45.08
2022-12-23T04:18:53.900Z,48.42
2022-12-23T04:21:20.582Z,32.97
2022-12-23T04:23:47.129Z,45.80
2022-12-23T04:26:13.949Z,53.00
2022-12-23T04:28:40.508Z,66.82
2022-12-23T04:31:07.075Z,61.28
2022-12-23T04:33:33.637Z,77.72
2022-12-23T04:36:01.018Z,79.10
2022-12-23T04:38:27.698Z,67.72
2022-12-23T04:40:54.253Z,65.07
2022-12-23T04:43:20.820Z,67.05
2022-12-23T04:45:51.337Z,70.63
2022-12-23T04:48:18.423Z,60.20
2022-12-23T04:50:44.987Z,58.03
2022-12-23T04:53:11.579Z,50.22
2022-12-23T04:55:38.125Z,65.80
2022-12-23T04:58:04.689Z,59.67
2022-12-23T05:00:37.175Z,43.13
2022-12-23T05:03:06.266Z,51.47
2022-12-23T05:05:32.868Z,60.55
2022-12-23T05:08:04.380Z,55.78
2022-12-23T05:10:31.869Z,56.65
2022-12-23T05:12:58.527Z,64.22
2022-12-23T05:15:25.117Z,66.35
2022-12-23T05:17:51.679Z,68.43
2022-12-23T05:20:18.183Z,65.40
2022-12-23T05:22:44.800Z,54.05
2022-12-23T05:25:11.333Z,36.25
2022-12-23T05:27:37.939Z,58.35
2022-12-23T05:30:05.026Z,52.92
2022-12-23T05:32:31.676Z,53.70
2022-12-23T05:34:58.277Z,89.05
2022-12-23T05:37:24.817Z,104.93
2022-12-23T05:39:51.402Z,112.55
2022-12-23T05:42:19.528Z,92.53
2022-12-23T05:44:46.121Z,92.53
2022-12-23T05:47:12.758Z,106.57
2022-12-23T05:49:39.266Z,83.30
2022-12-23T05:52:05.845Z,76.93
2022-12-23T05:54:32.570Z,73.13
2022-12-23T05:56:59.172Z,82.80
2022-12-23T05:59:30.703Z,71.20
2022-12-23T06:01:58.117Z,69.10
2022-12-23T06:04:24.831Z,69.95
2022-12-23T06:06:51.445Z,65.30
2022-12-23T06:09:18.007Z,64.72
2022-12-23T06:11:44.566Z,65.25
2022-12-23T06:14:11.220Z,51.83
2022-12-23T06:16:37.859Z,66.97
2022-12-23T06:19:04.497Z,52.50
2022-12-23T06:21:32.022Z,76.70
2022-12-23T06:23:58.639Z,79.55
2022-12-23T06:26:25.923Z,67.45
2022-12-23T06:28:52.515Z,71.72
2022-12-23T06:31:19.176Z,52.95
2022-12-23T06:33:45.881Z,68.68
2022-12-23T06:36:12.451Z,108.85
2022-12-23T06:38:39.011Z,99.80
2022-12-23T06:41:05.554Z,78.00
2022-12-23T06:43:32.144Z,65.60
2022-12-23T06:45:58.697Z,86.80
2022-12-23T06:48:25.303Z,100.30
2022-12-23T06:50:52.075Z,108.68
2022-12-23T06:53:18.882Z,139.15
2022-12-23T06:55:45.414Z,131.45
2022-12-23T06:58:11.948Z,110.63
2022-12-23T07:00:38.730Z,68.55
2022-12-23T07:03:05.487Z,89.80
2022-12-23T07:05:37.003Z,94.75
2022-12-23T07:08:04.586Z,113.50
2022-12-23T07:10:31.126Z,85.78
2022-12-23T07:12:57.673Z,49.30
2022-12-23T07:15:24.225Z,55.92
2022-12-23T07:17:50.711Z,65.20
2022-12-23T07:20:17.375Z,57.08
2022-12-23T07:22:43.972Z,65.10
2022-12-23T07:25:10.524Z,63.85
2022-12-23T07:27:37.075Z,59.40
2022-12-23T07:30:04.042Z,57.38
2022-12-23T07:32:30.561Z,62.05
2022-12-23T07:34:57.102Z,69.35
2022-12-23T07:37:23.608Z,68.15
2022-12-23T07:39:50.168Z,60.17
2022-12-23T07:42:43.422Z,64.32
2022-12-23T07:45:04.624Z,66.88
2022-12-23T07:47:31.348Z,69.75
2022-12-23T07:49:57.880Z,66.18
2022-12-23T07:52:24.462Z,78.63
2022-12-23T07:54:50.972Z,74.80
2022-12-23T07:57:17.517Z,69.30
2022-12-23T07:59:44.065Z,73.80
2022-12-23T08:02:11.486Z,56.20
2022-12-23T08:04:44.135Z,79.97
2022-12-23T08:07:12.473Z,76.20
2022-12-23T08:09:39.065Z,62.13
2022-12-23T08:12:05.910Z,46.78
2022-12-23T08:14:32.468Z,53.92
2022-12-23T08:16:59.163Z,56.83
2022-12-23T08:19:25.715Z,52.70
2022-12-23T08:21:52.566Z,47.72
2022-12-23T08:24:19.130Z,54.97
2022-12-23T08:26:45.678Z,55.13
2022-12-23T08:29:12.344Z,55.15
2022-12-23T08:31:38.928Z,67.68
2022-12-23T08:34:05.485Z,66.57
2022-12-23T08:36:34.269Z,68.05
2022-12-23T08:39:04.563Z,67.28
2022-12-23T08:41:34.312Z,69.60
2022-12-23T08:44:01.077Z,69.82
2022-12-23T08:46:28.632Z,67.80
2022-12-23T08:48:55.539Z,57.38
2022-12-23T08:51:24.341Z,63.53
2022-12-23T08:53:59.574Z,67.20
2022-12-23T08:56:30.400Z,65.22
2022-12-23T08:58:57.655Z,60.47
2022-12-23T09:01:27.798Z,64.05
2022-12-23T09:03:54.638Z,61.67
2022-12-23T09:06:29.015Z,60.20
2022-12-23T09:08:57.116Z,61.88
2022-12-23T09:11:26.456Z,59.58
2022-12-23T09:13:53.477Z,62.08
2022-12-23T09:16:20.674Z,58.72
2022-12-23T09:18:47.250Z,63.28
2022-12-23T09:21:16.592Z,74.00
2022-12-23T09:23:43.242Z,73.75
2022-12-23T09:26:10.684Z,51.13
2022-12-23T09:28:37.724Z,53.50
2022-12-23T09:31:12.744Z,59.05
2022-12-23T09:33:39.923Z,56.22
2022-12-23T09:36:06.822Z,42.95
2022-12-23T09:38:33.845Z,45.08
2022-12-23T09:41:21.800Z,42.50
2022-12-23T09:44:09.760Z,34.35
2022-12-23T09:46:43.013Z,31.77
2022-12-23T09:49:13.427Z,37.08
2022-12-23T09:51:40.034Z,27.42
2022-12-23T09:54:22.654Z,28.25
2022-12-23T09:57:00.568Z,27.85
2022-12-23T10:00:01.064Z,38.33
2022-12-23T10:02:30.368Z,45.22
2022-12-23T10:05:15.594Z,37.80
2022-12-23T10:07:48.617Z,29.85
2022-12-23T10:10:25.746Z,34.67
2022-12-23T10:15:26.063Z,33.53
2022-12-23T10:17:55.630Z,29.30
2022-12-23T10:20:43.007Z,29.30
2022-12-23T10:23:31.457Z,36.58
2022-12-23T10:25:58.253Z,31.73
2022-12-23T10:28:29.765Z,31.67
2022-12-23T10:31:38.827Z,34.85
2022-12-23T10:34:11.743Z,32.70
2022-12-23T10:36:54.488Z,31.38
2022-12-23T10:39:32.394Z,28.10
2022-12-23T10:42:05.911Z,25.13
2022-12-23T10:44:47.513Z,26.77
2022-12-23T10:47:41.827Z,26.95
2022-12-23T10:50:48.498Z,22.92
2022-12-23T10:53:27.025Z,32.22
2022-12-23T10:55:54.246Z,31.30
2022-12-23T10:58:21.717Z,36.70
2022-12-23T11:03:24.208Z,39.80
2022-12-23T11:05:52.806Z,37.90
2022-12-23T11:08:21.938Z,35.35
2022-12-23T11:10:49.263Z,34.25
2022-12-23T11:15:50.112Z,37.55
2022-12-23T11:18:19.801Z,34.25
2022-12-23T11:21:05.839Z,36.55
2022-12-23T11:23:36.789Z,35.47
2022-12-23T11:26:13.304Z,47.53
2022-12-23T11:28:48.889Z,42.20
2022-12-23T11:31:17.067Z,49.40
2022-12-23T11:33:55.781Z,45.45
2022-12-23T11:36:25.259Z,47.38
2022-12-23T11:39:14.639Z,40.58
2022-12-23T11:41:49.762Z,64.25
2022-12-23T11:44:24.884Z,68.07
2022-12-23T11:46:51.961Z,58.28
2022-12-23T11:49:27.416Z,43.63
2022-12-23T11:52:06.202Z,31.65
2022-12-23T11:54:33.845Z,28.80
2022-12-23T11:57:04.096Z,27.08
2022-12-23T11:59:41.126Z,27.15
2022-12-23T12:02:15.505Z,26.75
2022-12-23T12:04:42.837Z,28.20
2022-12-23T12:07:14.449Z,31.33
2022-12-23T12:09:43.697Z,37.00
2022-12-23T12:12:19.484Z,34.95
2022-12-23T12:14:52.650Z,35.90
2022-12-23T12:17:42.446Z,30.42
2022-12-23T12:20:20.825Z,47.42
2022-12-23T12:22:59.170Z,42.78
2022-12-23T12:25:47.654Z,33.30
2022-12-23T12:28:21.003Z,35.28
2022-12-23T12:30:55.800Z,37.88
2022-12-23T12:33:30.297Z,56.97
2022-12-23T12:36:34.030Z,48.15
2022-12-23T12:39:00.733Z,35.35
2022-12-23T12:41:43.119Z,38.72
2022-12-23T12:44:28.397Z,51.92
2022-12-23T12:47:10.998Z,62.78
2022-12-23T12:50:02.246Z,36.47
2022-12-23T12:52:36.779Z,46.30
2022-12-23T12:55:17.297Z,44.25
2022-12-23T12:57:43.883Z,59.25
2022-12-23T13:00:22.566Z,52.47
2022-12-23T13:03:21.450Z,49.95
2022-12-23T13:06:06.769Z,53.42
2022-12-23T13:08:56.711Z,42.63
2022-12-23T13:11:44.108Z,47.97
2022-12-23T13:14:38.168Z,71.78
2022-12-23T13:17:19.235Z,116.47
2022-12-23T13:19:54.681Z,120.07
2022-12-23T13:22:23.998Z,99.57
2022-12-23T13:25:05.645Z,117.32
2022-12-23T13:27:38.806Z,119.28
2022-12-23T13:30:14.456Z,114.47
2022-12-23T13:32:51.520Z,117.47
2022-12-23T13:35:37.630Z,62.97
2022-12-23T13:38:04.466Z,62.67
2022-12-23T13:40:49.531Z,60.47
2022-12-23T13:43:20.475Z,70.60
2022-12-23T13:45:48.220Z,74.97
2022-12-23T13:48:39.442Z,71.28
2022-12-23T13:51:11.975Z,110.05
2022-12-23T13:53:53.583Z,86.65
2022-12-23T13:56:27.154Z,82.28
2022-12-23T13:58:54.265Z,85.10
2022-12-23T14:01:42.989Z,81.50
2022-12-23T14:04:37.419Z,84.50
2022-12-23T14:07:32.060Z,136.63
2022-12-23T14:10:10.360Z,125.50
2022-12-23T14:12:40.878Z,152.90
2022-12-23T14:15:32.367Z,140.35
2022-12-23T14:18:07.894Z,123.78
2022-12-23T14:20:49.533Z,131.07
2022-12-23T14:23:51.651Z,132.15
2022-12-23T14:26:33.681Z,133.73
2022-12-23T14:29:37.510Z,119.28
2022-12-23T14:32:04.309Z,116.13
2022-12-23T14:34:33.314Z,115.00
2022-12-23T14:37:21.143Z,122.32
2022-12-23T14:39:49.342Z,124.85
2022-12-23T14:42:35.220Z,124.80
2022-12-23T14:45:24.488Z,121.35
2022-12-23T14:47:51.100Z,104.00
2022-12-23T14:50:32.675Z,101.32
2022-12-23T14:53:18.424Z,95.55
2022-12-23T14:55:46.113Z,90.85
2022-12-23T14:58:30.828Z,88.07
2022-12-23T15:01:12.542Z,124.28
2022-12-23T15:04:01.554Z,98.05
2022-12-23T15:06:31.457Z,71.07
2022-12-23T15:08:58.764Z,91.10
2022-12-23T15:13:59.914Z,80.00
2022-12-23T15:16:39.695Z,69.45
2022-12-23T15:19:19.397Z,70.65
2022-12-23T15:21:50.356Z,69.53
2022-12-23T15:24:22.515Z,66.32
2022-12-23T15:27:17.825Z,68.35
2022-12-23T15:29:43.779Z,58.17
2022-12-23T15:32:11.940Z,59.50
2022-12-23T15:34:38.644Z,47.55
2022-12-23T15:37:11.343Z,58.15
2022-12-23T15:39:43.817Z,51.53
2022-12-23T15:42:22.272Z,48.45
2022-12-23T15:44:48.975Z,37.83
2022-12-23T15:47:30.141Z,32.08
2022-12-23T15:49:59.456Z,54.92
2022-12-23T15:52:29.382Z,62.80
2022-12-23T15:55:10.124Z,40.75
2022-12-23T15:57:49.566Z,50.95
2022-12-23T16:00:23.154Z,33.75
2022-12-23T16:03:01.520Z,35.63
2022-12-23T16:05:32.978Z,40.53
2022-12-23T16:08:28.622Z,40.90
2022-12-23T16:11:07.076Z,42.80
2022-12-23T16:13:34.004Z,45.13
2022-12-23T16:16:18.901Z,39.63
2022-12-23T16:18:47.759Z,79.15
2022-12-23T16:21:15.279Z,75.30
2022-12-23T16:23:53.093Z,65.70
2022-12-23T16:26:20.948Z,71.47
2022-12-23T16:28:51.521Z,84.28
2022-12-23T16:31:20.279Z,75.63
2022-12-23T16:33:58.163Z,93.22
2022-12-23T16:36:27.577Z,101.72
2022-12-23T16:39:05.385Z,143.10
2022-12-23T16:41:32.093Z,132.85
2022-12-23T16:43:59.358Z,138.32
2022-12-23T16:51:23.554Z,123.57
2022-12-23T16:53:51.795Z,114.75
2022-12-23T16:56:20.975Z,109.60
2022-12-23T16:58:48.318Z,96.13
2022-12-23T17:03:49.081Z,84.72
2022-12-23T17:06:17.389Z,81.78
2022-12-23T17:08:44.117Z,103.47
2022-12-23T17:11:40.249Z,118.40
2022-12-23T17:14:13.592Z,119.10
2022-12-23T17:16:42.481Z,118.97
2022-12-23T17:19:09.114Z,134.95
2022-12-23T17:21:37.296Z,121.78
2022-12-23T17:24:19.720Z,152.25
2022-12-23T17:26:46.323Z,141.32
2022-12-23T17:29:13.238Z,82.32
2022-12-23T17:31:42.665Z,92.95
2022-12-23T17:34:18.668Z,85.63
2022-12-23T17:36:49.976Z,141.32
2022-12-23T17:39:17.293Z,139.65
2022-12-23T17:41:44.083Z,153.48
2022-12-23T17:44:14.316Z,110.00
2022-12-23T17:46:41.794Z,73.13
2022-12-23T17:49:08.936Z,110.05
2022-12-23T17:51:35.829Z,90.45
2022-12-23T17:54:04.594Z,128.65
2022-12-23T17:56:31.386Z,136.82
2022-12-23T17:58:58.121Z,158.75
2022-12-23T18:01:30.100Z,166.90
2022-12-23T18:03:58.599Z,170.48
2022-12-23T18:06:27.702Z,144.30
2022-12-23T18:08:55.318Z,117.22
2022-12-23T18:11:30.181Z,149.98
2022-12-23T18:13:57.021Z,120.95
2022-12-23T18:16:23.647Z,137.05
2022-12-23T18:18:50.379Z,115.15
2022-12-23T18:21:26.457Z,115.13
2022-12-23T18:23:55.124Z,61.20
2022-12-23T18:26:21.873Z,92.80
2022-12-23T18:28:48.497Z,92.32
2022-12-23T18:31:20.147Z,97.93
2022-12-23T18:33:46.982Z,114.00
2022-12-23T18:36:25.214Z,115.20
2022-12-23T18:38:52.698Z,98.25
2022-12-23T18:41:20.352Z,88.05
2022-12-23T18:43:47.246Z,98.85
2022-12-23T18:46:13.840Z,87.60
2022-12-23T18:48:40.569Z,90.15
2022-12-23T18:51:07.461Z,85.13
2022-12-23T18:53:34.040Z,90.75
2022-12-23T18:56:00.654Z,94.13
2022-12-23T18:58:27.232Z,95.53
2022-12-23T19:00:54.332Z,87.80
2022-12-23T19:03:21.009Z,88.68
2022-12-23T19:05:48.974Z,75.22
2022-12-23T19:08:21.860Z,72.05
2022-12-23T19:10:52.596Z,67.28
2022-12-23T19:13:19.528Z,71.18
2022-12-23T19:15:46.763Z,66.28
2022-12-23T19:20:43.123Z,63.05
2022-12-23T19:23:11.088Z,70.70
2022-12-23T19:25:40.761Z,72.65
2022-12-23T19:28:07.445Z,74.18
2022-12-23T19:30:34.653Z,75.20
2022-12-23T19:35:28.247Z,70.07
2022-12-23T19:37:54.876Z,74.25
2022-12-23T19:40:21.508Z,82.18
2022-12-23T19:42:48.284Z,94.43
2022-12-23T19:45:14.870Z,87.00
2022-12-23T19:47:41.457Z,71.55
2022-12-23T19:50:08.795Z,74.53
2022-12-23T19:55:01.954Z,66.97
2022-12-23T19:57:28.813Z,84.28
2022-12-23T19:59:55.467Z,68.72
2022-12-23T20:02:23.484Z,62.63
2022-12-23T20:04:50.139Z,68.03
2022-12-23T20:07:16.909Z,39.47
2022-12-23T20:09:43.531Z,56.03
2022-12-23T20:12:10.662Z,55.70
2022-12-23T20:14:37.481Z,62.60
2022-12-23T20:17:04.175Z,84.78
2022-12-23T20:19:30.931Z,102.05
2022-12-23T20:21:57.587Z,72.55
2022-12-23T20:24:25.637Z,89.50
2022-12-23T20:26:52.253Z,84.38
2022-12-23T20:29:19.217Z,63.63
2022-12-23T20:31:45.902Z,84.28
2022-12-23T20:34:15.684Z,96.00
2022-12-23T20:36:42.515Z,96.22
2022-12-23T20:39:09.289Z,93.65
2022-12-23T20:41:35.937Z,90.82
2022-12-23T20:44:33.323Z,79.95
2022-12-23T20:46:49.233Z,83.45
2022-12-23T20:49:15.905Z,76.05
2022-12-23T20:51:42.601Z,59.65
2022-12-23T20:54:09.386Z,61.50
2022-12-23T20:56:36.030Z,59.97
2022-12-23T20:59:04.005Z,55.58
2022-12-23T21:01:31.973Z,56.35
2022-12-23T21:04:01.171Z,58.47
2022-12-23T21:06:29.241Z,64.10
2022-12-23T21:08:58.242Z,108.28
2022-12-23T21:11:27.562Z,110.68
2022-12-23T21:13:54.131Z,76.47
2022-12-23T21:16:21.030Z,62.45
2022-12-23T21:18:52.650Z,59.15
2022-12-23T21:21:23.519Z,49.55
2022-12-23T21:23:50.560Z,46.45
2022-12-23T21:26:22.976Z,46.17
2022-12-23T21:28:52.269Z,48.72
2022-12-23T21:31:23.477Z,51.28
2022-12-23T21:33:52.094Z,62.30
2022-12-23T21:36:22.142Z,58.80
2022-12-23T21:38:50.148Z,54.08
2022-12-23T21:41:20.233Z,49.88
2022-12-23T21:43:47.285Z,49.45
2022-12-23T21:46:16.326Z,46.03
2022-12-23T21:48:43.496Z,43.22
2022-12-23T21:51:14.401Z,47.10
2022-12-23T21:53:42.663Z,45.65
2022-12-23T21:56:14.199Z,48.35
2022-12-23T21:58:41.578Z,52.25
2022-12-23T22:01:10.330Z,57.67
2022-12-23T22:03:37.598Z,52.10
2022-12-23T22:08:38.923Z,66.30
2022-12-23T22:11:10.727Z,56.45
2022-12-23T22:13:38.088Z,59.60
2022-12-23T22:16:08.941Z,51.80
2022-12-23T22:18:36.885Z,44.78
2022-12-23T22:21:16.329Z,50.92
2022-12-23T22:23:43.909Z,53.15
2022-12-23T22:26:13.530Z,40.65
2022-12-23T22:28:42.289Z,46.47
2022-12-23T22:31:17.823Z,45.78
2022-12-23T22:33:44.880Z,48.10
2022-12-23T22:36:13.030Z,47.38
2022-12-23T22:38:40.063Z,47.10
2022-12-23T22:41:06.838Z,51.97
2022-12-23T22:43:33.699Z,82.18
2022-12-23T22:46:01.955Z,89.65
2022-12-23T22:48:30.326Z,90.63
2022-12-23T22:51:14.281Z,90.32
2022-12-23T22:53:41.020Z,86.07
2022-12-23T22:56:08.495Z,86.10
2022-12-23T22:58:35.279Z,78.28
2022-12-23T23:01:02.106Z,79.50
2022-12-23T23:03:29.151Z,68.18
2022-12-23T23:06:07.273Z,64.32
2022-12-23T23:08:34.864Z,77.50
2022-12-23T23:11:03.823Z,75.93
2022-12-23T23:13:33.604Z,82.32
2022-12-23T23:16:00.496Z,60.80
2022-12-23T23:18:28.025Z,51.13
2022-12-23T23:20:54.717Z,63.05
2022-12-23T23:23:21.715Z,55.53
2022-12-23T23:25:48.286Z,51.33
2022-12-23T23:28:14.966Z,34.33
2022-12-23T23:30:41.596Z,67.65
2022-12-23T23:33:08.929Z,67.75
2022-12-23T23:38:02.421Z,66.18
2022-12-23T23:40:28.999Z,73.07
2022-12-23T23:42:55.598Z,49.47
2022-12-23T23:45:22.194Z,61.60
2022-12-23T23:47:48.806Z,50.70
2022-12-23T23:50:15.337Z,49.92
2022-12-23T23:52:41.934Z,63.83
2022-12-23T23:55:09.013Z,56.15
2022-12-23T23:57:35.619Z,63.05
